createdAt,value
2018-09-17T00:01:31.777Z,4.33
2018-09-17T00:04:00.356Z,4.03
2018-09-17T00:06:28.768Z,5.67
2018-09-17T00:08:57.121Z,4.93
2018-09-17T00:11:25.544Z,5.00
2018-09-17T00:13:53.945Z,3.93
2018-09-17T00:16:22.356Z,4.77
2018-09-17T00:18:50.950Z,4.27
2018-09-17T00:21:19.468Z,4.43
2018-09-17T00:23:47.824Z,4.00
2018-09-17T00:26:16.162Z,4.13
2018-09-17T00:28:44.568Z,3.90
2018-09-17T00:31:12.950Z,4.67
2018-09-17T00:33:41.352Z,4.27
2018-09-17T00:36:09.748Z,4.40
2018-09-17T00:38:38.153Z,4.40
2018-09-17T00:41:06.593Z,4.87
2018-09-17T00:43:35.004Z,4.50
2018-09-17T00:46:03.487Z,4.13
2018-09-17T00:48:31.885Z,4.20
2018-09-17T00:51:00.304Z,4.40
2018-09-17T00:53:28.746Z,5.07
2018-09-17T00:55:57.172Z,4.90
2018-09-17T00:58:25.645Z,4.57
2018-09-17T01:00:54.281Z,4.37
2018-09-17T01:03:22.781Z,4.20
2018-09-17T01:05:51.345Z,4.60
2018-09-17T01:08:19.901Z,4.80
2018-09-17T01:10:48.313Z,4.13
2018-09-17T01:13:16.714Z,4.10
2018-09-17T01:15:45.140Z,4.80
2018-09-17T01:18:13.577Z,4.50
2018-09-17T01:20:42.770Z,4.07
2018-09-17T01:23:11.208Z,4.70
2018-09-17T01:25:39.720Z,4.37
2018-09-17T01:28:08.212Z,4.10
2018-09-17T01:30:36.848Z,3.87
2018-09-17T01:33:05.621Z,5.90
2018-09-17T01:35:34.260Z,3.70
2018-09-17T01:38:03.372Z,3.90
2018-09-17T01:40:32.207Z,3.97
2018-09-17T01:43:00.646Z,4.77
2018-09-17T01:45:29.095Z,4.43
2018-09-17T01:47:57.552Z,4.43
2018-09-17T01:50:25.936Z,4.40
2018-09-17T01:52:55.256Z,4.60
2018-09-17T01:55:24.023Z,4.53
2018-09-17T01:57:52.647Z,4.17
2018-09-17T02:00:21.236Z,4.60
2018-09-17T02:02:49.667Z,5.10
2018-09-17T02:05:18.057Z,4.20
2018-09-17T02:07:46.463Z,4.27
2018-09-17T02:10:14.842Z,4.70
2018-09-17T02:12:43.313Z,4.60
2018-09-17T02:15:11.721Z,5.00
2018-09-17T02:17:40.172Z,4.57
2018-09-17T02:20:08.573Z,4.80
2018-09-17T02:22:37.007Z,4.30
2018-09-17T02:25:05.900Z,4.30
2018-09-17T02:27:34.697Z,4.60
2018-09-17T02:30:03.205Z,3.77
2018-09-17T02:32:31.740Z,3.90
2018-09-17T02:35:00.138Z,6.13
2018-09-17T02:37:28.559Z,4.37
2018-09-17T02:39:57.093Z,4.50
2018-09-17T02:42:25.520Z,4.53
2018-09-17T02:44:53.901Z,4.30
2018-09-17T02:47:22.514Z,4.70
2018-09-17T02:49:50.937Z,4.50
2018-09-17T02:52:19.402Z,5.43
2018-09-17T02:54:47.804Z,4.90
2018-09-17T02:57:16.252Z,4.57
2018-09-17T02:59:44.781Z,6.50
2018-09-17T03:02:13.227Z,6.10
2018-09-17T03:04:41.723Z,4.30
2018-09-17T03:07:10.133Z,4.70
2018-09-17T03:09:38.749Z,3.80
2018-09-17T03:12:07.651Z,4.77
2018-09-17T03:14:36.207Z,4.43
2018-09-17T03:17:15.300Z,4.73
2018-09-17T03:19:44.687Z,5.60
2018-09-17T03:22:13.864Z,4.70
2018-09-17T03:24:42.349Z,5.00
2018-09-17T03:27:10.779Z,5.57
2018-09-17T03:29:39.369Z,4.80
2018-09-17T03:32:07.781Z,4.93
2018-09-17T03:34:36.185Z,4.70
2018-09-17T03:37:04.756Z,4.90
2018-09-17T03:39:33.205Z,4.73
2018-09-17T03:42:01.624Z,4.27
2018-09-17T03:44:29.973Z,5.33
2018-09-17T03:46:58.367Z,4.73
2018-09-17T03:49:26.802Z,4.47
2018-09-17T03:51:55.193Z,4.30
2018-09-17T03:54:23.637Z,4.17
2018-09-17T03:56:52.161Z,4.77
2018-09-17T03:59:20.641Z,5.30
2018-09-17T04:01:49.071Z,4.47
2018-09-17T04:04:17.503Z,4.27
2018-09-17T04:06:45.942Z,4.63
2018-09-17T04:09:14.321Z,5.23
2018-09-17T04:11:42.791Z,4.50
2018-09-17T04:14:11.153Z,4.73
2018-09-17T04:16:39.603Z,8.13
2018-09-17T04:19:08.064Z,5.10
2018-09-17T04:21:36.545Z,4.30
2018-09-17T04:24:05.008Z,5.27
2018-09-17T04:26:33.463Z,5.23
2018-09-17T04:29:01.830Z,5.63
2018-09-17T04:31:30.690Z,5.27
2018-09-17T04:33:59.155Z,5.50
2018-09-17T04:36:27.657Z,5.50
2018-09-17T04:38:56.207Z,4.77
2018-09-17T04:41:24.706Z,5.30
2018-09-17T04:43:53.380Z,5.27
2018-09-17T04:46:21.917Z,5.40
2018-09-17T04:48:50.657Z,7.03
2018-09-17T04:51:19.108Z,15.97
2018-09-17T04:53:47.585Z,19.73
2018-09-17T04:56:16.000Z,11.10
2018-09-17T04:58:44.430Z,6.90
2018-09-17T05:01:12.791Z,7.53
2018-09-17T05:03:41.264Z,6.20
2018-09-17T05:06:09.681Z,5.40
2018-09-17T05:08:38.099Z,6.70
2018-09-17T05:11:07.423Z,5.73
2018-09-17T05:13:35.861Z,6.17
2018-09-17T05:16:04.280Z,6.90
2018-09-17T05:18:32.701Z,5.67
2018-09-17T05:21:01.099Z,5.50
2018-09-17T05:23:29.554Z,4.70
2018-09-17T05:25:57.937Z,7.00
2018-09-17T05:28:26.408Z,6.03
2018-09-17T05:30:54.961Z,7.80
2018-09-17T05:33:23.583Z,5.00
2018-09-17T05:35:52.117Z,7.27
2018-09-17T05:38:20.585Z,5.00
2018-09-17T05:40:49.447Z,4.97
2018-09-17T05:43:17.928Z,10.43
2018-09-17T05:45:46.348Z,5.67
2018-09-17T05:48:15.008Z,5.47
2018-09-17T05:50:43.556Z,6.23
2018-09-17T05:53:12.610Z,5.43
2018-09-17T05:55:41.221Z,4.90
2018-09-17T05:58:09.676Z,7.40
2018-09-17T06:00:38.240Z,4.90
2018-09-17T06:03:06.720Z,5.37
2018-09-17T06:05:35.261Z,5.07
2018-09-17T06:08:03.732Z,5.27
2018-09-17T06:10:32.165Z,5.60
2018-09-17T06:13:00.541Z,5.77
2018-09-17T06:15:28.989Z,6.83
2018-09-17T06:17:57.575Z,6.10
2018-09-17T06:20:26.092Z,5.50
2018-09-17T06:22:55.344Z,5.97
2018-09-17T06:25:27.911Z,6.37
2018-09-17T06:27:57.235Z,10.23
2018-09-17T06:30:26.571Z,5.90
2018-09-17T06:32:55.257Z,6.63
2018-09-17T06:35:23.835Z,11.07
2018-09-17T06:37:52.360Z,6.77
2018-09-17T06:40:20.949Z,6.03
2018-09-17T06:42:50.937Z,6.50
2018-09-17T06:45:19.612Z,6.93
2018-09-17T06:47:47.971Z,6.60
2018-09-17T06:50:16.538Z,8.03
2018-09-17T06:52:44.993Z,6.67
2018-09-17T06:55:13.375Z,17.47
2018-09-17T06:57:41.796Z,17.17
2018-09-17T07:00:10.662Z,13.70
2018-09-17T07:02:39.642Z,8.43
2018-09-17T07:05:08.101Z,12.90
2018-09-17T07:07:36.950Z,8.77
2018-09-17T07:10:06.486Z,8.00
2018-09-17T07:12:34.891Z,14.03
2018-09-17T07:15:03.400Z,10.17
2018-09-17T07:17:32.038Z,8.60
2018-09-17T07:20:00.444Z,10.47
2018-09-17T07:22:29.048Z,8.57
2018-09-17T07:24:57.469Z,8.80
2018-09-17T07:27:26.494Z,14.10
2018-09-17T07:29:54.870Z,14.50
2018-09-17T07:32:23.477Z,9.13
2018-09-17T07:34:51.864Z,8.03
2018-09-17T07:37:20.342Z,13.50
2018-09-17T07:39:48.852Z,12.53
2018-09-17T07:42:17.252Z,8.50
2018-09-17T07:44:45.648Z,12.37
2018-09-17T07:47:14.033Z,7.87
2018-09-17T07:49:42.499Z,15.07
2018-09-17T07:52:11.049Z,12.50
2018-09-17T07:54:39.441Z,11.30
2018-09-17T07:57:07.817Z,13.70
2018-09-17T07:59:36.288Z,13.07
2018-09-17T08:02:04.708Z,17.33
2018-09-17T08:04:33.104Z,21.97
2018-09-17T08:07:01.538Z,9.77
2018-09-17T08:09:29.998Z,8.53
2018-09-17T08:11:58.430Z,8.73
2018-09-17T08:14:26.913Z,14.57
2018-09-17T08:16:55.531Z,9.80
2018-09-17T08:19:23.981Z,18.23
2018-09-17T08:21:52.500Z,9.83
2018-09-17T08:24:21.005Z,9.67
2018-09-17T08:26:49.514Z,11.50
2018-09-17T08:29:18.022Z,18.73
2018-09-17T08:31:46.467Z,9.53
2018-09-17T08:34:14.927Z,18.00
2018-09-17T08:36:43.350Z,9.50
2018-09-17T08:39:13.339Z,8.70
2018-09-17T08:41:42.452Z,10.33
2018-09-17T08:44:11.715Z,13.57
2018-09-17T08:46:40.185Z,13.50
2018-09-17T08:49:08.926Z,12.37
2018-09-17T08:51:37.473Z,8.03
2018-09-17T08:54:05.898Z,11.07
2018-09-17T08:56:39.572Z,9.47
2018-09-17T08:59:13.287Z,9.13
2018-09-17T09:01:47.181Z,9.23
2018-09-17T09:04:20.959Z,12.33
2018-09-17T09:06:59.640Z,12.03
2018-09-17T09:09:28.237Z,10.20
2018-09-17T09:11:56.769Z,11.13
2018-09-17T09:14:30.440Z,13.70
2018-09-17T09:16:58.943Z,15.27
2018-09-17T09:19:27.405Z,15.50
2018-09-17T09:21:55.838Z,15.17
2018-09-17T09:24:24.349Z,13.20
2018-09-17T09:26:52.912Z,16.33
2018-09-17T09:29:21.408Z,13.40
2018-09-17T09:31:49.939Z,11.23
2018-09-17T09:34:18.432Z,10.20
2018-09-17T09:36:46.887Z,14.27
2018-09-17T09:39:15.364Z,11.77
2018-09-17T09:41:44.258Z,21.70
2018-09-17T09:44:12.796Z,12.23
2018-09-17T09:46:41.243Z,8.80
2018-09-17T09:49:09.694Z,10.30
2018-09-17T09:51:38.092Z,14.00
2018-09-17T09:54:06.576Z,10.10
2018-09-17T09:56:35.019Z,10.63
2018-09-17T09:59:03.479Z,11.10
2018-09-17T10:01:36.943Z,9.97
2018-09-17T10:04:10.773Z,9.10
2018-09-17T10:06:39.172Z,8.73
2018-09-17T10:09:13.280Z,8.03
2018-09-17T10:11:46.993Z,8.27
2018-09-17T10:14:20.989Z,8.90
2018-09-17T10:16:54.929Z,12.40
2018-09-17T10:19:24.650Z,9.73
2018-09-17T10:21:53.053Z,8.80
2018-09-17T10:24:21.574Z,8.83
2018-09-17T10:26:50.106Z,11.93
2018-09-17T10:29:18.657Z,8.80
2018-09-17T10:31:47.109Z,11.13
2018-09-17T10:34:15.494Z,7.20
2018-09-17T10:36:43.880Z,7.37
2018-09-17T10:39:13.589Z,10.50
2018-09-17T10:41:42.020Z,6.87
2018-09-17T10:44:10.967Z,6.80
2018-09-17T10:46:39.355Z,6.47
2018-09-17T10:49:08.619Z,5.90
2018-09-17T10:51:38.357Z,7.00
2018-09-17T10:54:06.879Z,7.60
2018-09-17T10:56:35.241Z,7.10
2018-09-17T10:59:03.683Z,8.60
2018-09-17T11:01:32.072Z,7.87
2018-09-17T11:04:00.648Z,6.70
2018-09-17T11:06:30.003Z,6.73
2018-09-17T11:08:58.836Z,6.03
2018-09-17T11:11:27.289Z,6.00
2018-09-17T11:13:55.709Z,8.70
2018-09-17T11:16:24.149Z,8.40
2018-09-17T11:18:52.575Z,7.00
2018-09-17T11:21:21.254Z,6.90
2018-09-17T11:23:49.736Z,6.13
2018-09-17T11:26:18.225Z,7.37
2018-09-17T11:28:46.660Z,6.03
2018-09-17T11:31:15.095Z,6.70
2018-09-17T11:33:43.733Z,6.93
2018-09-17T11:36:12.135Z,7.87
2018-09-17T11:38:40.881Z,7.63
2018-09-17T11:41:09.563Z,5.30
2018-09-17T11:43:38.225Z,6.07
2018-09-17T11:46:06.977Z,5.37
2018-09-17T11:48:35.405Z,5.37
2018-09-17T11:51:04.270Z,4.63
2018-09-17T11:53:33.584Z,7.50
2018-09-17T11:56:02.031Z,5.40
2018-09-17T11:58:30.489Z,4.67
2018-09-17T12:01:04.277Z,5.10
2018-09-17T12:03:37.897Z,5.40
2018-09-17T12:06:06.457Z,5.80
2018-09-17T12:08:35.011Z,5.17
2018-09-17T12:11:03.737Z,7.70
2018-09-17T12:13:32.412Z,9.00
2018-09-17T12:16:00.812Z,6.63
2018-09-17T12:18:29.200Z,5.47
2018-09-17T12:20:57.655Z,6.80
2018-09-17T12:23:26.083Z,5.90
2018-09-17T12:25:54.507Z,5.73
2018-09-17T12:28:22.997Z,4.60
2018-09-17T12:30:51.700Z,4.80
2018-09-17T12:33:20.245Z,8.27
2018-09-17T12:35:48.663Z,5.60
2018-09-17T12:38:17.135Z,6.97
2018-09-17T12:40:45.579Z,5.10
2018-09-17T12:43:14.098Z,4.50
2018-09-17T12:45:42.646Z,5.10
2018-09-17T12:48:11.106Z,5.43
2018-09-17T12:50:39.489Z,4.40
2018-09-17T12:53:08.023Z,4.77
2018-09-17T12:55:36.400Z,8.50
2018-09-17T12:58:05.053Z,6.30
2018-09-17T13:00:33.612Z,4.27
2018-09-17T13:03:02.082Z,4.27
2018-09-17T13:05:30.609Z,4.50
2018-09-17T13:07:59.158Z,4.50
2018-09-17T13:10:27.875Z,5.53
2018-09-17T13:12:56.324Z,5.23
2018-09-17T13:15:24.800Z,4.10
2018-09-17T13:17:53.210Z,4.30
2018-09-17T13:20:21.692Z,12.10
2018-09-17T13:22:50.314Z,7.63
2018-09-17T13:25:18.761Z,4.73
2018-09-17T13:27:47.184Z,5.77
2018-09-17T13:30:15.573Z,4.10
2018-09-17T13:32:44.028Z,5.43
2018-09-17T13:35:12.436Z,9.50
2018-09-17T13:37:40.880Z,6.93
2018-09-17T13:40:09.305Z,4.70
2018-09-17T13:42:37.904Z,4.40
2018-09-17T13:45:06.456Z,4.43
2018-09-17T13:47:35.084Z,4.23
2018-09-17T13:50:05.300Z,4.43
2018-09-17T13:52:34.616Z,4.70
2018-09-17T13:55:03.145Z,4.40
2018-09-17T13:57:31.852Z,3.77
2018-09-17T14:00:00.745Z,4.87
2018-09-17T14:02:30.097Z,4.10
2018-09-17T14:04:59.330Z,4.80
2018-09-17T14:07:28.074Z,7.03
2018-09-17T14:09:56.588Z,4.33
2018-09-17T14:12:24.971Z,4.40
2018-09-17T14:14:55.750Z,5.13
2018-09-17T14:17:24.225Z,4.10
2018-09-17T14:19:52.777Z,5.50
2018-09-17T14:22:21.187Z,4.53
2018-09-17T14:24:49.643Z,4.80
2018-09-17T14:27:18.121Z,4.30
2018-09-17T14:29:46.520Z,5.63
2018-09-17T14:32:20.345Z,4.23
2018-09-17T14:34:48.761Z,4.13
2018-09-17T14:37:17.294Z,5.13
2018-09-17T14:39:45.655Z,5.20
2018-09-17T14:42:14.086Z,4.67
2018-09-17T14:44:42.427Z,3.90
2018-09-17T14:47:10.912Z,4.60
2018-09-17T14:49:39.390Z,6.40
2018-09-17T14:52:07.773Z,3.47
2018-09-17T14:54:36.366Z,10.03
2018-09-17T14:57:04.700Z,3.60
2018-09-17T14:59:33.082Z,4.73
2018-09-17T15:02:01.487Z,4.30
2018-09-17T15:04:29.982Z,4.03
2018-09-17T15:06:58.445Z,4.53
2018-09-17T15:09:27.272Z,5.70
2018-09-17T15:11:56.243Z,4.13
2018-09-17T15:14:25.370Z,5.30
2018-09-17T15:16:54.393Z,3.90
2018-09-17T15:19:23.001Z,3.70
2018-09-17T15:21:53.002Z,4.17
2018-09-17T15:24:21.938Z,8.20
2018-09-17T15:26:51.062Z,4.30
2018-09-17T15:29:20.146Z,4.83
2018-09-17T15:31:49.200Z,9.70
2018-09-17T15:34:18.337Z,4.40
2018-09-17T15:36:47.040Z,4.07
2018-09-17T15:39:16.078Z,4.33
2018-09-17T15:41:44.908Z,4.67
2018-09-17T15:44:13.950Z,4.50
2018-09-17T15:46:42.773Z,4.70
2018-09-17T15:49:11.617Z,6.27
2018-09-17T15:51:40.622Z,4.83
2018-09-17T15:54:09.537Z,4.00
2018-09-17T15:56:38.513Z,4.27
2018-09-17T15:59:08.179Z,3.73
2018-09-17T16:01:37.562Z,4.07
2018-09-17T16:04:06.609Z,3.67
2018-09-17T16:06:35.746Z,5.83
2018-09-17T16:09:05.292Z,4.00
2018-09-17T16:11:34.128Z,4.10
2018-09-17T16:14:03.199Z,4.10
2018-09-17T16:16:31.621Z,8.13
2018-09-17T16:18:59.973Z,4.80
2018-09-17T16:21:28.468Z,4.13
2018-09-17T16:23:56.915Z,6.00
2018-09-17T16:26:25.402Z,4.73
2018-09-17T16:28:53.964Z,4.47
2018-09-17T16:31:22.539Z,5.93
2018-09-17T16:33:51.620Z,8.20
2018-09-17T16:36:20.203Z,4.27
2018-09-17T16:38:48.692Z,4.83
2018-09-17T16:41:17.171Z,5.60
2018-09-17T16:43:46.120Z,4.87
2018-09-17T16:46:14.638Z,5.10
2018-09-17T16:48:43.043Z,5.60
2018-09-17T16:51:11.493Z,5.07
2018-09-17T16:53:40.139Z,5.53
2018-09-17T16:56:08.618Z,5.17
2018-09-17T16:58:37.051Z,6.13
2018-09-17T17:01:05.525Z,6.20
2018-09-17T17:03:34.028Z,5.60
2018-09-17T17:06:02.502Z,6.90
2018-09-17T17:08:30.996Z,8.40
2018-09-17T17:10:59.556Z,13.00
2018-09-17T17:13:28.075Z,5.53
2018-09-17T17:15:56.747Z,6.13
2018-09-17T17:18:25.156Z,7.10
2018-09-17T17:20:53.663Z,7.27
2018-09-17T17:23:22.128Z,6.40
2018-09-17T17:25:50.748Z,9.00
2018-09-17T17:28:19.396Z,5.37
2018-09-17T17:30:48.100Z,5.37
2018-09-17T17:33:16.694Z,8.70
2018-09-17T17:35:45.735Z,6.40
2018-09-17T17:38:14.213Z,7.27
2018-09-17T17:40:43.024Z,6.20
2018-09-17T17:43:11.382Z,6.40
2018-09-17T17:45:39.788Z,5.50
2018-09-17T17:48:08.225Z,5.77
2018-09-17T17:50:36.746Z,5.27
2018-09-17T17:53:05.153Z,8.93
2018-09-17T17:55:33.598Z,5.37
2018-09-17T17:58:02.212Z,11.17
2018-09-17T18:00:30.558Z,5.93
2018-09-17T18:02:58.977Z,5.50
2018-09-17T18:05:27.602Z,6.57
2018-09-17T18:07:56.091Z,5.30
2018-09-17T18:10:24.657Z,6.60
2018-09-17T18:12:53.246Z,7.83
2018-09-17T18:15:22.256Z,15.67
2018-09-17T18:17:50.895Z,4.70
2018-09-17T18:20:19.480Z,7.53
2018-09-17T18:22:47.967Z,6.27
2018-09-17T18:25:16.417Z,5.93
2018-09-17T18:27:44.882Z,5.30
2018-09-17T18:30:13.436Z,6.60
2018-09-17T18:32:41.936Z,20.23
2018-09-17T18:35:10.456Z,14.97
2018-09-17T18:37:38.881Z,6.63
2018-09-17T18:40:07.431Z,12.33
2018-09-17T18:42:36.361Z,13.20
2018-09-17T18:45:04.959Z,19.30
2018-09-17T18:47:33.465Z,10.60
2018-09-17T18:50:01.998Z,9.97
2018-09-17T18:52:31.408Z,9.90
2018-09-17T18:55:02.009Z,9.53
2018-09-17T18:57:30.629Z,12.17
2018-09-17T19:00:00.201Z,9.40
2018-09-17T19:02:28.785Z,5.83
2018-09-17T19:04:57.322Z,6.03
2018-09-17T19:07:26.038Z,6.13
2018-09-17T19:09:54.846Z,10.37
2018-09-17T19:12:23.721Z,5.40
2018-09-17T19:14:57.618Z,5.77
2018-09-17T19:17:31.354Z,8.53
2018-09-17T19:19:59.927Z,5.43
2018-09-17T19:22:33.731Z,5.60
2018-09-17T19:25:02.230Z,9.00
2018-09-17T19:27:36.032Z,5.50
2018-09-17T19:30:05.218Z,6.00
2018-09-17T19:32:33.714Z,5.73
2018-09-17T19:35:02.595Z,8.20
2018-09-17T19:37:36.405Z,7.77
2018-09-17T19:40:15.263Z,5.13
2018-09-17T19:42:44.902Z,4.83
2018-09-17T19:45:18.708Z,4.50
2018-09-17T19:47:47.345Z,5.93
2018-09-17T19:50:21.042Z,6.33
2018-09-17T19:52:49.904Z,5.30
2018-09-17T19:55:18.392Z,5.37
2018-09-17T19:57:52.204Z,6.07
2018-09-17T20:00:20.940Z,5.27
2018-09-17T20:02:49.638Z,4.90
2018-09-17T20:05:23.496Z,5.17
2018-09-17T20:07:52.149Z,6.00
2018-09-17T20:10:21.064Z,4.93
2018-09-17T20:12:49.696Z,5.07
2018-09-17T20:15:19.022Z,6.47
2018-09-17T20:17:47.761Z,6.33
2018-09-17T20:20:16.328Z,5.07
2018-09-17T20:22:45.462Z,5.70
2018-09-17T20:25:14.372Z,4.50
2018-09-17T20:27:43.655Z,4.93
2018-09-17T20:30:12.516Z,4.27
2018-09-17T20:32:41.060Z,4.97
2018-09-17T20:35:09.561Z,4.30
2018-09-17T20:37:37.972Z,4.87
2018-09-17T20:40:06.544Z,4.60
2018-09-17T20:42:34.972Z,4.33
2018-09-17T20:45:03.440Z,4.90
2018-09-17T20:47:31.919Z,5.10
2018-09-17T20:50:00.415Z,4.77
2018-09-17T20:52:28.863Z,5.40
2018-09-17T20:54:57.449Z,5.40
2018-09-17T20:57:25.863Z,5.07
2018-09-17T20:59:54.413Z,4.73
2018-09-17T21:04:53.301Z,5.13
2018-09-17T21:07:21.884Z,4.70
2018-09-17T21:09:50.424Z,4.80
2018-09-17T21:12:18.808Z,4.67
2018-09-17T21:14:47.522Z,4.27
2018-09-17T21:17:16.454Z,4.63
2018-09-17T21:19:44.847Z,4.47
2018-09-17T21:22:13.335Z,5.07
2018-09-17T21:24:43.056Z,4.67
2018-09-17T21:27:12.378Z,4.30
2018-09-17T21:29:40.936Z,4.67
2018-09-17T21:32:11.888Z,4.53
2018-09-17T21:34:40.498Z,4.20
2018-09-17T21:37:11.077Z,4.43
2018-09-17T21:39:40.700Z,4.83
2018-09-17T21:42:10.048Z,4.00
2018-09-17T21:44:38.425Z,4.50
2018-09-17T21:47:06.824Z,4.93
2018-09-17T21:49:35.765Z,4.53
2018-09-17T21:52:04.185Z,5.00
2018-09-17T21:54:32.608Z,4.27
2018-09-17T21:57:01.051Z,5.17
2018-09-17T21:59:30.608Z,5.70
2018-09-17T22:01:59.005Z,5.20
2018-09-17T22:04:29.788Z,4.93
2018-09-17T22:06:58.274Z,4.70
2018-09-17T22:09:26.760Z,6.60
2018-09-17T22:11:55.451Z,4.53
2018-09-17T22:14:24.261Z,3.83
2018-09-17T22:16:52.975Z,4.57
2018-09-17T22:19:21.911Z,5.23
2018-09-17T22:21:50.499Z,4.30
2018-09-17T22:24:19.123Z,4.83
2018-09-17T22:26:47.549Z,4.40
2018-09-17T22:29:16.024Z,4.70
2018-09-17T22:31:44.549Z,4.63
2018-09-17T22:34:13.060Z,7.30
2018-09-17T22:36:41.529Z,4.57
2018-09-17T22:39:11.089Z,4.30
2018-09-17T22:41:40.129Z,4.90
2018-09-17T22:44:08.566Z,5.50
2018-09-17T22:46:36.987Z,4.10
2018-09-17T22:49:05.644Z,4.53
2018-09-17T22:51:34.162Z,3.70
2018-09-17T22:54:02.688Z,4.67
2018-09-17T22:56:31.036Z,4.80
2018-09-17T22:58:59.599Z,4.40
2018-09-17T23:01:28.080Z,3.87
2018-09-17T23:03:56.544Z,4.63
2018-09-17T23:06:25.075Z,5.50
2018-09-17T23:08:53.540Z,4.93
2018-09-17T23:11:22.179Z,4.40
2018-09-17T23:13:50.804Z,4.80
2018-09-17T23:16:20.580Z,4.77
2018-09-17T23:18:49.067Z,5.20
2018-09-17T23:21:17.435Z,4.50
2018-09-17T23:23:45.927Z,4.33
2018-09-17T23:26:14.357Z,8.03
2018-09-17T23:28:42.791Z,4.67
2018-09-17T23:31:11.416Z,5.00
2018-09-17T23:33:39.848Z,4.70
2018-09-17T23:36:08.552Z,4.60
2018-09-17T23:38:36.999Z,4.83
2018-09-17T23:41:05.511Z,4.70
2018-09-17T23:43:34.004Z,4.60
2018-09-17T23:46:02.476Z,4.60
2018-09-17T23:48:31.038Z,6.30
2018-09-17T23:50:59.530Z,5.20
2018-09-17T23:53:27.971Z,4.70
2018-09-17T23:55:56.412Z,4.97
2018-09-17T23:58:24.830Z,4.87
